Friday, October 31, 2014, 10:44 AM EDT

KSEG, Selinsgrove Penn Valley Airport

Location: Selinsgrove, PA, United States Lat: 40.817
Local Time: 10:44 AM EDT (14:44 GMT) Lon: -76.867
Time Zone: US/Eastern Elev: 449 ft

Show me the last for .
Show Decoded

2014-10-31 09:53 METAR KSEG 311353Z AUTO 36003KT 10SM OVC060 06/02 A3001 RMK AO2 SLP164 T00610022
                 =
2014-10-31 08:53 METAR KSEG 311253Z AUTO 00000KT 10SM OVC055 05/03 A3002 RMK AO2 SLP169 T00500033
                 =
2014-10-31 07:53 METAR KSEG 311153Z AUTO 00000KT 10SM OVC055 05/03 A3002 RMK AO2 SLP167 T00500028
                 10050 20022 58001 =
2014-10-31 06:53 METAR KSEG 311053Z AUTO 00000KT 10SM OVC055 04/03 A3002 RMK AO2 SLP167 T00440033
                 =
2014-10-31 05:53 METAR KSEG 310953Z AUTO 00000KT 10SM OVC055 04/03 A3002 RMK AO2 SLP167 T00440028
                 =
2014-10-31 04:53 METAR KSEG 310853Z AUTO 00000KT 10SM OVC055 03/02 A3002 RMK AO2 SLP167 T00330022
                 58005 =
2014-10-31 02:53 METAR KSEG 310653Z AUTO 34003KT 10SM CLR 02/01 A3003 RMK AO2 SLP169 T00220011 =
2014-10-31 01:53 METAR KSEG 310553Z AUTO 35003KT 10SM CLR 03/02 A3003 RMK AO2 SLP172 T00330022
                 10078 20033 56004 =
2014-10-31 00:53 METAR KSEG 310453Z AUTO 00000KT 8SM SCT055 06/04 A3004 RMK AO2 SLP174 T00560039
                 401280022 =
2014-10-30 23:53 METAR KSEG 310353Z AUTO 00000KT 7SM OVC055 07/06 A3003 RMK AO2 SLP171 T00720056
                 =
2014-10-30 22:53 METAR KSEG 310253Z AUTO 00000KT 10SM FEW047 OVC055 08/06 A3005 RMK AO2 SLP177
                 T00780056 53003 =
2014-10-30 21:53 METAR KSEG 310153Z AUTO 00000KT 8SM OVC055 08/05 A3005 RMK AO2 SLP176 T00780050
                 =
2014-10-30 20:53 METAR KSEG 310053Z AUTO 00000KT 8SM OVC055 08/04 A3004 RMK AO2 SLP175 T00780044
                 =
2014-10-30 19:53 METAR KSEG 302353Z AUTO 00000KT 10SM OVC060 07/05 A3004 RMK AO2 SLP175 T00720050
                 10128 20072 51005 =
2014-10-30 18:53 METAR KSEG 302253Z AUTO 00000KT 10SM SCT060 09/04 A3004 RMK AO2 SLP174 T00890044
                 =
2014-10-30 17:53 METAR KSEG 302153Z AUTO 05004KT 10SM OVC055 11/03 A3003 RMK AO2 SLP170 T01110028
                 =
2014-10-30 16:53 METAR KSEG 302053Z AUTO 00000KT 10SM OVC050 12/03 A3002 RMK AO2 SLP169 T01170028
                 55002 =
2014-10-30 15:53 METAR KSEG 301953Z AUTO 00000KT 10SM OVC055 12/01 A3002 RMK AO2 SLP168 T01170011
                 =
2014-10-30 14:53 METAR KSEG 301853Z AUTO 34005KT 10SM OVC050 13/02 A3002 RMK AO2 SLP167 T01280022
                 =
2014-10-30 13:53 METAR KSEG 301753Z AUTO 01004KT 10SM OVC050 12/02 A3003 RMK AO2 SLP171 T01220022
                 10128 20039 58008 =
2014-10-30 12:53 METAR KSEG 301653Z AUTO VRB05KT 10SM OVC050 12/03 A3005 RMK AO2 SLP176 T01220028
                 =
2014-10-30 11:53 METAR KSEG 301553Z AUTO 33006KT 10SM FEW044 OVC055 11/03 A3006 RMK AO2 SLP180
                 T01110028 =
2014-10-30 10:53 METAR KSEG 301453Z AUTO 35005KT 10SM SCT033 11/04 A3006 RMK AO2 SLP179 T01110039
                 50006 =

Support USWX by starting your Amazon purchase here.